Hunter Civil 10Hr Day/Nighter and 6 Hr Blast 2018
27 Oct 2018

     

Page 1 of 3 (108 items)
FavPosRace NoNameTimeCategoryCat PosGenderGen PosLapsFastest LapSlowest LapAverage LapDist DonePace
136Nathon Wright05:58:18Blue Dog Events Veteran 1 Men1Male11600:20:1700:23:2400:22:23 171.200 28.7 km/h
26Olly Pearce05:39:57Blue Dog Events Open Men1Male21500:20:3600:24:3200:22:39 160.500 28.3 km/h
334Mike Smart05:40:58Blue Dog Events Veteran 1 Men2Male31500:20:1600:24:1500:22:43 160.500 28.2 km/h
435Mitchell Sincock05:40:59Blue Dog Events Veteran 1 Men3Male41500:20:1800:24:1700:22:43 160.500 28.2 km/h
557Blair Stuthridge05:41:00Blue Dog Events Veteran 2 Men1Male51500:20:1800:24:1500:22:44 160.500 28.2 km/h
675Neil Sutherland05:47:46Blue Dog Events Veteran 2 Men2Male61500:21:0800:24:5400:23:11 160.500 27.7 km/h
712Aaron Prince05:48:10Blue Dog Events Veteran 1 Men4Male71500:20:4100:24:3300:23:12 160.500 27.7 km/h
814Angus Petrie05:55:59Blue Dog Events Veteran 1 Men5Male81500:21:3100:25:2600:23:43 160.500 27.1 km/h
953Adam Burns05:57:11Blue Dog Events Veteran 2 Men3Male91500:22:2700:25:3700:23:48 160.500 27.0 km/h
1013Andrew Henderson05:58:48Blue Dog Events Veteran 1 Men6Male101500:20:5700:26:2500:23:55 160.500 26.8 km/h
1144Simon Earl05:59:42Blue Dog Events Veteran 1 Men7Male111500:21:1500:25:3600:23:58 160.500 26.8 km/h
127Tom Pearce05:59:55Blue Dog Events Open Men2Male121500:20:1600:26:1400:23:59 160.500 26.8 km/h
1320Dave Slater05:37:32Blue Dog Events Veteran 1 Men8Male131400:21:3100:25:4000:24:06 149.800 26.6 km/h
1474Michael Ferigo05:37:32Blue Dog Events Veteran 2 Men4Male141400:21:2100:27:0200:24:06 149.800 26.6 km/h
15101Shane Fairmaid05:38:22Blue Dog Events Veteran 2 Men5Male151400:22:4600:25:4200:24:10 149.800 26.6 km/h
1627Jeremy Inglis05:42:31Blue Dog Events Open Men3Male161400:20:0000:35:0100:24:27 149.800 26.2 km/h
1748Stuart Lowe05:43:28Blue Dog Events Veteran 1 Men9Male171400:21:0900:26:5800:24:32 149.800 26.2 km/h
1864David Ralston05:45:02Blue Dog Events Veteran 2 Men6Male181400:21:4200:26:0900:24:38 149.800 26.0 km/h
193Kurt Standen05:47:43Blue Dog Events Open Men4Male191400:21:1600:27:1400:24:50 149.800 25.8 km/h
2015Brent Burchett05:49:33Blue Dog Events Veteran 1 Men10Male201400:21:3300:27:3800:24:58 149.800 25.7 km/h
2184Winston Bowler05:50:54Blue Dog Events Veteran 2 Men7Male211400:22:3000:27:2500:25:03 149.800 25.6 km/h
2249Tim Madgwick05:51:09Blue Dog Events Veteran 1 Men11Male221400:20:1900:33:3600:25:04 149.800 25.6 km/h
231Alex Dodds05:52:09Blue Dog Events Open Men5Male231400:21:3400:29:0200:25:09 149.800 25.5 km/h
24107Geoffrey Hay05:53:03Blue Dog Events Veteran 2 Men8Male241400:22:2500:27:3400:25:13 149.800 25.5 km/h
259Courtney Winsloe05:53:10Blue Dog Events Open Women1Female11400:23:2400:27:1700:25:13 149.800 25.4 km/h
2661Dave Harris05:55:28Blue Dog Events Veteran 2 Men9Male251400:23:3200:27:0800:25:23 149.800 25.3 km/h
2717Craig Gilmore05:55:38Blue Dog Events Veteran 1 Men12Male261400:22:2800:27:1600:25:24 149.800 25.3 km/h
2837Nick Johnston05:55:41Blue Dog Events Veteran 1 Men13Male271400:24:2600:26:5900:25:24 149.800 25.3 km/h
29102Steve Harvey05:55:45Blue Dog Events Veteran 2 Men10Male281400:22:1200:31:3400:25:24 149.800 25.3 km/h
3055Andre Chappell05:56:10Blue Dog Events Veteran 2 Men11Male291400:22:4800:26:5500:25:26 149.800 25.2 km/h
3179Richard Naylor05:56:11Blue Dog Events Veteran 2 Men12Male301400:22:5600:27:3800:25:26 149.800 25.2 km/h
3247Stuart Langsford05:35:44Blue Dog Events Veteran 1 Men14Male311300:23:5000:27:2800:25:49 139.100 24.9 km/h
3399Tony Lange05:39:19Blue Dog Events Veteran 2 Men13Male321300:23:3900:27:4300:26:06 139.100 24.6 km/h
3497David Eglesfield05:41:10Blue Dog Events Veteran 2 Men14Male331300:24:1800:30:2800:26:14 139.100 24.5 km/h
3542Scott Maxwell05:41:17Blue Dog Events Veteran 1 Men15Male341300:23:3700:30:1600:26:15 139.100 24.5 km/h
36108Glenn Pratley05:44:20Blue Dog Events Veteran 1 Men16Male351300:23:3200:31:5400:26:29 139.100 24.2 km/h
374Lawrie Quibell05:46:36Blue Dog Events Open Men6Male361300:24:2800:28:4900:26:39 139.100 24.1 km/h
3821Geoff Taylor05:46:48Blue Dog Events Veteran 1 Men17Male371300:21:2900:31:1800:26:40 139.100 24.1 km/h
3945Stephen Threadgall05:49:53Blue Dog Events Veteran 1 Men18Male381300:24:1200:29:0800:26:54 139.100 23.9 km/h
4066Geoff Harrison05:52:55Blue Dog Events Veteran 2 Men15Male391300:25:3500:29:2600:27:08 139.100 23.6 km/h
4126Jason Rae05:53:29Blue Dog Events Veteran 1 Men19Male401300:24:2700:34:3300:27:11 139.100 23.6 km/h
4254Alan McNulty05:53:37Blue Dog Events Veteran 2 Men16Male411300:23:2700:35:5700:27:12 139.100 23.6 km/h
4332Matt Rudge05:54:35Blue Dog Events Veteran 1 Men20Male421300:25:5200:28:4000:27:16 139.100 23.5 km/h
4430Laurent De Maudave Bestel05:55:12Blue Dog Events Veteran 1 Men21Male431300:25:3100:29:5600:27:19 139.100 23.5 km/h
4586Maxine Birchfield05:55:55Blue Dog Events Veteran 2 Women1Female21300:23:4100:30:4500:27:22 139.100 23.4 km/h
46105Hannah Presswood05:56:04Blue Dog Events Open Women2Female31300:26:1700:30:2000:27:23 139.100 23.4 km/h
4783Tim Raw05:57:26Blue Dog Events Veteran 2 Men17Male441300:24:1300:37:1000:27:29 139.100 23.3 km/h
488William Ball05:58:08Blue Dog Events Open Men7Male451300:24:0800:32:5500:27:32 139.100 23.3 km/h
4950Tony Jorgensen05:58:24Blue Dog Events Veteran 1 Men22Male461300:25:2600:30:0000:27:34 139.100 23.3 km/h
5077Patrick Aspros05:18:51Blue Dog Events Veteran 2 Men18Male471200:24:3100:31:0100:26:34 128.400 24.2 km/h
Page 1 of 3 (108 items)